地図

経路データ

SID SEASON NUMBER BASIN SUBBASIN NAME ISO_TIME NATURE LAT LON WMO_WIND WMO_PRES WMO_AGENCY TRACK_TYPE DIST2LAND LANDFALL IFLAG USA_AGENCY USA_ATCF_ID USA_LAT USA_LON USA_RECORD USA_STATUS USA_WIND USA_PRES USA_SSHS USA_R34_NE USA_R34_SE USA_R34_SW USA_R34_NW USA_R50_NE USA_R50_SE USA_R50_SW USA_R50_NW USA_R64_NE USA_R64_SE USA_R64_SW USA_R64_NW USA_POCI USA_ROCI USA_RMW USA_EYE TOKYO_LAT TOKYO_LON TOKYO_GRADE TOKYO_WIND TOKYO_PRES TOKYO_R50_DIR TOKYO_R50_LONG TOKYO_R50_SHORT TOKYO_R30_DIR TOKYO_R30_LONG TOKYO_R30_SHORT TOKYO_LAND CMA_LAT CMA_LON CMA_CAT CMA_WIND CMA_PRES HKO_LAT HKO_LON HKO_CAT HKO_WIND HKO_PRES NEWDELHI_LAT NEWDELHI_LON NEWDELHI_GRADE NEWDELHI_WIND NEWDELHI_PRES NEWDELHI_CI NEWDELHI_DP NEWDELHI_POCI REUNION_LAT REUNION_LON REUNION_TYPE REUNION_WIND REUNION_PRES REUNION_TNUM REUNION_CI REUNION_RMW REUNION_R34_NE REUNION_R34_SE REUNION_R34_SW REUNION_R34_NW REUNION_R50_NE REUNION_R50_SE REUNION_R50_SW REUNION_R50_NW REUNION_R64_NE REUNION_R64_SE REUNION_R64_SW REUNION_R64_NW BOM_LAT BOM_LON BOM_TYPE BOM_WIND BOM_PRES BOM_TNUM BOM_CI BOM_RMW BOM_R34_NE BOM_R34_SE BOM_R34_SW BOM_R34_NW BOM_R50_NE BOM_R50_SE BOM_R50_SW BOM_R50_NW BOM_R64_NE BOM_R64_SE BOM_R64_SW BOM_R64_NW BOM_ROCI BOM_POCI BOM_EYE BOM_POS_METHOD BOM_PRES_METHOD NADI_LAT NADI_LON NADI_CAT NADI_WIND NADI_PRES WELLINGTON_LAT WELLINGTON_LON WELLINGTON_WIND WELLINGTON_PRES DS824_LAT DS824_LON DS824_STAGE DS824_WIND DS824_PRES TD9636_LAT TD9636_LON TD9636_STAGE TD9636_WIND TD9636_PRES TD9635_LAT TD9635_LON TD9635_WIND TD9635_PRES TD9635_ROCI NEUMANN_LAT NEUMANN_LON NEUMANN_CLASS NEUMANN_WIND NEUMANN_PRES MLC_LAT MLC_LON MLC_CLASS MLC_WIND MLC_PRES USA_GUST BOM_GUST BOM_GUST_PER REUNION_GUST REUNION_GUST_PER USA_SEAHGT USA_SEARAD_NE USA_SEARAD_SE USA_SEARAD_SW USA_SEARAD_NW STORM_SPEED STORM_DIR
1921314N11130 1921 62 WP MM NOT_NAMED 1921-11-09 22:00:00 NR 10.8000 130.000 main 453 408 __________O___ -1 10.8000 130.000 7 13 253
1921314N11130 1921 62 WP MM NOT_NAMED 1921-11-10 00:00:00 NR 10.6743 129.583 main 408 339 __________P___ -1 10.6743 129.583 7 13 254
1921314N11130 1921 62 WP MM NOT_NAMED 1921-11-10 03:00:00 NR 10.5075 128.951 main 339 266 __________P___ -1 10.5075 128.951 7 13 258
1921314N11130 1921 62 WP MM NOT_NAMED 1921-11-10 06:00:00 NR 10.3976 128.304 main 266 202 __________P___ -1 10.3976 128.304 7 13 264
1921314N11130 1921 62 WP MM NOT_NAMED 1921-11-10 09:00:00 NR 10.3796 127.632 main 202 183 __________P___ -1 10.3796 127.632 7 13 270
1921314N11130 1921 62 WP MM NOT_NAMED 1921-11-10 10:00:00 NR 10.4000 127.400 main 183 132 __________O___ -1 10.4000 127.400 7 14 279
1921314N11130 1921 62 WP MM NOT_NAMED 1921-11-10 12:00:00 NR 10.4844 126.926 main 132 55 __________P___ -1 10.4844 126.926 7 14 284
1921314N11130 1921 62 WP MM NOT_NAMED 1921-11-10 15:00:00 NR 10.6992 126.220 main 55 11 __________P___ -1 10.6992 126.220 7 14 291
1921314N11130 1921 62 WP MM NOT_NAMED 1921-11-10 18:00:00 NR 10.9834 125.571 main 15 0 __________P___ -1 10.9834 125.571 7 13 297
1921314N11130 1921 62 WP MM NOT_NAMED 1921-11-10 21:00:00 NR 11.2963 125.040 main 0 0 __________P___ -1 11.2963 125.040 7 12 302
1921314N11130 1921 62 WP MM NOT_NAMED 1921-11-10 22:00:00 NR 11.4000 124.900 main 10 0 __________O___ -1 11.4000 124.900 4 8 310
1921314N11130 1921 62 WP MM NOT_NAMED 1921-11-11 00:00:00 NR 11.5664 124.718 main 15 15 __________P___ -1 11.5664 124.718 4 6 323
1921314N11130 1921 62 WP MM NOT_NAMED 1921-11-11 03:00:00 NR 11.8228 124.571 main 24 10 __________P___ -1 11.8228 124.571 4 6 338
1921314N11130 1921 62 WP MM NOT_NAMED 1921-11-11 06:00:00 NR 12.0954 124.504 main 10 0 __________P___ -1 12.0954 124.504 4 6 347
1921314N11130 1921 62 WP MM NOT_NAMED 1921-11-11 09:00:00 NR 12.3935 124.437 main 0 0 __________P___ -1 12.3935 124.437 4 6 345
1921314N11130 1921 62 WP MM NOT_NAMED 1921-11-11 10:00:00 NR 12.5000 124.400 main 0 0 __________O___ -1 12.5000 124.400 4 8 334
1921314N11130 1921 62 WP MM NOT_NAMED 1921-11-11 12:00:00 NR 12.7297 124.269 main 21 0 __________P___ -1 12.7297 124.269 4 8 329
1921314N11130 1921 62 WP MM NOT_NAMED 1921-11-11 15:00:00 NR 13.0995 124.035 main 11 0 __________P___ -1 13.0995 124.035 4 9 326
1921314N11130 1921 62 WP MM NOT_NAMED 1921-11-11 18:00:00 NR 13.4859 123.754 main 15 0 __________P___ -1 13.4859 123.754 4 10 322
1921314N11130 1921 62 WP MM NOT_NAMED 1921-11-11 21:00:00 NR 13.8733 123.422 main 0 0 __________P___ -1 13.8733 123.422 4 10 319
1921314N11130 1921 62 WP MM NOT_NAMED 1921-11-11 22:00:00 NR 14.0000 123.300 main 0 0 __________O___ -1 14.0000 123.300 4 10 315
1921314N11130 1921 62 WP MM NOT_NAMED 1921-11-12 00:00:00 NR 14.2417 123.043 main 10 11 __________P___ -1 14.2417 123.043 4 11 312
1921314N11130 1921 62 WP MM NOT_NAMED 1921-11-12 03:00:00 NR 14.5980 122.612 main 44 44 __________P___ -1 14.5980 122.612 4 11 309
1921314N11130 1921 62 WP MM NOT_NAMED 1921-11-12 06:00:00 NR 14.9467 122.146 main 48 31 __________P___ -1 14.9467 122.146 4 12 307
1921314N11130 1921 62 WP MM NOT_NAMED 1921-11-12 09:00:00 NR 15.2879 121.662 main 31 10 __________P___ -1 15.2879 121.662 4 12 306
1921314N11130 1921 62 WP MM NOT_NAMED 1921-11-12 10:00:00 NR 15.4000 121.500 main 10 0 __________O___ -1 15.4000 121.500 4 12 305
1921314N11130 1921 62 WP MM NOT_NAMED 1921-11-12 12:00:00 NR 15.6331 121.153 main 0 0 __________P___ -1 15.6331 121.153 4 12 304
1921314N11130 1921 62 WP MM NOT_NAMED 1921-11-12 15:00:00 NR 15.9767 120.624 main 0 0 __________P___ -1 15.9767 120.624 4 12 304
1921314N11130 1921 62 WP MM NOT_NAMED 1921-11-12 18:00:00 NR 16.3043 120.129 main 21 11 __________P___ -1 16.3043 120.129 4 11 306
1921314N11130 1921 62 WP MM NOT_NAMED 1921-11-12 21:00:00 NR 16.6065 119.713 main 35 35 __________P___ -1 16.6065 119.713 4 10 308
1921314N11130 1921 62 WP MM NOT_NAMED 1921-11-12 22:00:00 NR 16.7000 119.600 main 49 49 __________O___ -1 16.7000 119.600 4 8 313
1921314N11130 1921 62 WP MM NOT_NAMED 1921-11-13 00:00:00 NR 16.8723 119.418 main 79 79 __________P___ -1 16.8723 119.418 4 6 319
1921314N11130 1921 62 WP MM NOT_NAMED 1921-11-13 03:00:00 NR 17.1061 119.233 main 110 110 __________P___ -1 17.1061 119.233 4 5 329
1921314N11130 1921 62 WP MM NOT_NAMED 1921-11-13 06:00:00 NR 17.3211 119.135 main 131 127 __________P___ -1 17.3211 119.135 4 4 343
1921314N11130 1921 62 WP MM NOT_NAMED 1921-11-13 09:00:00 NR 17.5298 119.101 main 127 127 __________P___ -1 17.5298 119.101 4 4 351
1921314N11130 1921 62 WP MM NOT_NAMED 1921-11-13 10:00:00 NR 17.6000 119.100 main 127 127 __________O___ -1 17.6000 119.100 4 5 0
1921314N11130 1921 62 WP MM NOT_NAMED 1921-11-13 12:00:00 NR 17.7578 119.091 main 129 129 __________P___ -1 17.7578 119.091 4 5 4
1921314N11130 1921 62 WP MM NOT_NAMED 1921-11-13 15:00:00 NR 17.9948 119.121 main 134 129 __________P___ -1 17.9948 119.121 4 5 11
1921314N11130 1921 62 WP MM NOT_NAMED 1921-11-13 18:00:00 NR 18.2237 119.187 main 134 131 __________P___ -1 18.2237 119.187 4 5 18
1921314N11130 1921 62 WP MM NOT_NAMED 1921-11-13 21:00:00 NR 18.4351 119.271 main 131 131 __________P___ -1 18.4351 119.271 4 4 21
1921314N11130 1921 62 WP MM NOT_NAMED 1921-11-13 22:00:00 NR 18.5000 119.300 main 134 134 __________O___ -1 18.5000 119.300 4 4 10
1921314N11130 1921 62 WP MM NOT_NAMED 1921-11-14 00:00:00 NR 18.6222 119.313 main 138 138 __________P___ -1 18.6222 119.313 4 3 6
1921314N11130 1921 62 WP MM NOT_NAMED 1921-11-14 03:00:00 NR 18.7867 119.338 main 144 134 __________P___ -1 18.7867 119.338 4 3 14
1921314N11130 1921 62 WP MM NOT_NAMED 1921-11-14 06:00:00 NR 18.9316 119.400 main 138 133 __________P___ -1 18.9316 119.400 4 3 34
1921314N11130 1921 62 WP MM NOT_NAMED 1921-11-14 09:00:00 NR 19.0602 119.534 main 139 131 __________P___ -1 19.0602 119.534 4 4 48
1921314N11130 1921 62 WP MM NOT_NAMED 1921-11-14 10:00:00 NR 19.1000 119.600 main 131 115 __________O___ -1 19.1000 119.600 4 5 72
1921314N11130 1921 62 WP MM NOT_NAMED 1921-11-14 12:00:00 NR 19.1391 119.792 main 115 92 __________P___ -1 19.1391 119.792 4 6 81
1921314N11130 1921 62 WP MM NOT_NAMED 1921-11-14 15:00:00 NR 19.1842 120.157 main 92 74 __________P___ -1 19.1842 120.157 4 7 81
1921314N11130 1921 62 WP MM NOT_NAMED 1921-11-14 18:00:00 NR 19.2598 120.568 main 81 78 __________P___ -1 19.2598 120.568 4 8 73
1921314N11130 1921 62 WP MM NOT_NAMED 1921-11-14 21:00:00 NR 19.4190 120.974 main 90 90 __________P___ -1 19.4190 120.974 4 8 64
1921314N11130 1921 62 WP MM NOT_NAMED 1921-11-14 22:00:00 NR 19.5000 121.100 main 102 102 __________O___ -1 19.5000 121.100 4 8 43
1921314N11130 1921 62 WP MM NOT_NAMED 1921-11-15 00:00:00 NR 19.7303 121.275 main 130 140 __________P___ -1 19.7303 121.275 4 9 30
1921314N11130 1921 62 WP MM NOT_NAMED 1921-11-15 03:00:00 NR 20.1707 121.512 main 189 157 __________P___ -1 20.1707 121.512 4 11 26
1921314N11130 1921 62 WP MM NOT_NAMED 1921-11-15 06:00:00 NR 20.6837 121.762 main 163 138 __________P___ -1 20.6837 121.762 4 12 27
1921314N11130 1921 62 WP MM NOT_NAMED 1921-11-15 09:00:00 NR 21.2227 122.074 main 146 141 __________P___ -1 21.2227 122.074 4 12 30
1921314N11130 1921 62 WP MM NOT_NAMED 1921-11-15 10:00:00 NR 21.4000 122.200 main 145 141 __________O___ -1 21.4000 122.200 4 13 37
1921314N11130 1921 62 WP MM NOT_NAMED 1921-11-15 12:00:00 NR 21.7433 122.493 main 166 165 __________P___ -1 21.7433 122.493 4 14 42
1921314N11130 1921 62 WP MM NOT_NAMED 1921-11-15 15:00:00 NR 22.2330 123.021 main 192 195 __________P___ -1 22.2330 123.021 4 14 48
1921314N11130 1921 62 WP MM NOT_NAMED 1921-11-15 18:00:00 NR 22.6995 123.626 main 229 237 __________P___ -1 22.6995 123.626 4 15 52
1921314N11130 1921 62 WP MM NOT_NAMED 1921-11-15 21:00:00 NR 23.1512 124.278 main 283 283 __________P___ -1 23.1512 124.278 4 15 53
1921314N11130 1921 62 WP MM NOT_NAMED 1921-11-15 22:00:00 NR 23.3000 124.500 main 296 __________O___ -1 23.3000 124.500 4 15 54

デジタル台風データ・検索

IBTrACS Databaseについて

本データベースは、米国NOAAが公開する1842年以降の世界の熱帯低気圧のベストトラックデータアーカイブInternational Best Track Archive for Climate Stewardship (IBTrACS)を、ウェブで閲覧しやすい形式に変換したものです。

最終更新日:2021-12-06